Time;durP1;ratioP1;P1;durP2;ratioP2;P2;SDS_P1;SDS_P2;PMS_P1;PMS_P2;Temp;Humidity;BMP_temperature;BMP_pressure;BME280_temperature;BME280_humidity;BME280_pressure;Samples;Min_cycle;Max_cycle;Signal;HPM_P1;HPM_P2
2023/03/17 00:01:20;;;;;;;5.47;2.00;;;6.20;66.30;;;;;;5025145;28;20501;-69
2023/03/17 00:03:48;;;;;;;5.68;2.00;;;6.10;66.50;;;;;;5022682;28;20029;-68
2023/03/17 00:06:24;;;;;;;5.03;2.03;;;6.20;66.50;;;;;;5029453;28;20478;-67
2023/03/17 00:08:50;;;;;;;4.93;1.92;;;6.10;66.70;;;;;;5024159;28;20025;-67
2023/03/17 00:11:17;;;;;;;7.38;2.00;;;6.20;66.90;;;;;;5019847;28;20527;-67
2023/03/17 00:13:44;;;;;;;6.70;1.88;;;6.20;66.40;;;;;;5028096;28;20033;-67
2023/03/17 00:16:26;;;;;;;5.03;1.88;;;6.20;66.60;;;;;;5020575;28;20052;-67
2023/03/17 00:18:53;;;;;;;4.80;2.83;;;6.10;67.50;;;;;;5025521;28;20048;-67
2023/03/17 00:21:29;;;;;;;2.72;1.77;;;6.20;67.90;;;;;;5024142;28;20037;-67
2023/03/17 00:23:56;;;;;;;4.22;1.75;;;6.20;68.00;;;;;;5021935;28;20033;-67
2023/03/17 00:26:23;;;;;;;5.22;1.70;;;6.20;66.60;;;;;;5017803;28;20037;-67
2023/03/17 00:28:49;;;;;;;3.70;1.92;;;6.10;67.60;;;;;;5018457;28;20026;-67
2023/03/17 00:31:22;;;;;;;4.55;2.38;;;6.20;67.50;;;;;;5030956;28;20391;-67
2023/03/17 00:33:51;;;;;;;4.47;2.40;;;6.10;66.90;;;;;;5035474;28;20057;-67
2023/03/17 00:36:26;;;;;;;5.75;1.83;;;6.10;67.90;;;;;;5021140;28;20068;-67
2023/03/17 00:38:54;;;;;;;4.60;1.90;;;6.10;68.10;;;;;;5027384;28;20064;-67
2023/03/17 00:41:21;;;;;;;6.32;2.45;;;6.00;68.10;;;;;;5027294;28;20432;-67
2023/03/17 00:43:47;;;;;;;6.32;2.10;;;6.00;68.20;;;;;;5033001;28;20646;-67
2023/03/17 00:46:15;;;;;;;5.82;2.05;;;6.00;68.80;;;;;;5033673;28;20043;-66
2023/03/17 00:48:45;;;;;;;3.75;2.15;;;5.90;69.20;;;;;;5031492;28;20050;-67
2023/03/17 00:51:12;;;;;;;6.22;2.28;;;6.00;69.00;;;;;;5031202;28;20064;-67
2023/03/17 00:53:38;;;;;;;4.50;2.10;;;5.80;69.00;;;;;;5028744;28;20041;-67
2023/03/17 00:56:14;;;;;;;5.45;2.20;;;5.70;69.50;;;;;;5034939;28;20064;-67
2023/03/17 00:58:40;;;;;;;4.18;2.15;;;5.70;69.80;;;;;;5032555;28;20786;-67
2023/03/17 01:01:08;;;;;;;9.30;2.58;;;5.70;70.00;;;;;;5027952;28;20059;-67
2023/03/17 01:03:33;;;;;;;7.78;2.20;;;5.70;70.10;;;;;;5026802;28;20045;-67
2023/03/17 01:06:01;;;;;;;7.55;2.08;;;5.70;70.20;;;;;;5034412;28;20076;-67
2023/03/17 01:08:30;;;;;;;5.45;2.35;;;5.80;70.30;;;;;;5028578;28;20056;-67
2023/03/17 01:10:56;;;;;;;4.82;2.35;;;5.70;69.80;;;;;;5028527;28;20098;-67
2023/03/17 01:13:22;;;;;;;6.78;2.40;;;5.70;70.40;;;;;;5029811;28;20706;-67
2023/03/17 01:15:49;;;;;;;6.60;2.45;;;5.70;70.20;;;;;;5029939;28;20037;-67
2023/03/17 01:18:19;;;;;;;4.32;2.25;;;5.70;70.20;;;;;;5026924;28;20021;-67
2023/03/17 01:20:45;;;;;;;7.18;2.55;;;5.60;70.60;;;;;;5027479;28;20036;-67
2023/03/17 01:23:12;;;;;;;5.45;2.33;;;5.60;70.90;;;;;;5034785;28;20094;-67
2023/03/17 01:25:40;;;;;;;4.50;2.63;;;5.60;71.00;;;;;;5030965;28;20520;-67
2023/03/17 01:28:07;;;;;;;3.67;2.15;;;5.50;70.40;;;;;;5030320;28;20021;-67
2023/03/17 01:30:38;;;;;;;4.20;2.25;;;5.50;71.20;;;;;;5034232;28;20033;-67
2023/03/17 01:33:07;;;;;;;7.47;2.40;;;5.60;71.40;;;;;;5029725;28;20025;-67
2023/03/17 01:35:34;;;;;;;3.50;2.00;;;5.60;71.10;;;;;;5025269;28;20037;-67
2023/03/17 01:38:01;;;;;;;7.00;2.15;;;5.60;70.80;;;;;;5026582;28;20032;-65
2023/03/17 01:40:30;;;;;;;5.20;2.20;;;5.60;71.10;;;;;;5025071;28;20033;-66
2023/03/17 01:43:05;;;;;;;5.57;2.25;;;5.60;70.40;;;;;;5024794;28;20967;-67
2023/03/17 01:46:08;;;;;;;7.72;2.50;;;5.50;71.10;;;;;;5023950;28;20049;-67
2023/03/17 01:48:58;;;;;;;5.32;2.78;;;5.50;71.50;;;;;;5024668;28;20060;-67
2023/03/17 01:51:36;;;;;;;5.03;2.58;;;5.50;71.90;;;;;;5023895;28;20106;-67
2023/03/17 01:54:08;;;;;;;5.35;2.90;;;5.40;71.50;;;;;;5030303;28;20639;-67
2023/03/17 01:56:36;;;;;;;4.93;2.58;;;5.40;71.70;;;;;;5029720;28;20770;-67
2023/03/17 01:59:06;;;;;;;6.32;2.90;;;5.50;71.20;;;;;;5023652;28;20056;-67
2023/03/17 02:01:41;;;;;;;7.50;3.08;;;5.50;71.00;;;;;;5028414;28;20047;-67
2023/03/17 02:04:09;;;;;;;6.75;3.10;;;5.50;72.00;;;;;;5032699;28;20029;-67
2023/03/17 02:06:35;;;;;;;6.38;2.75;;;5.50;71.40;;;;;;5031017;28;20135;-67
2023/03/17 02:09:01;;;;;;;7.63;2.90;;;5.40;71.30;;;;;;5030697;28;20038;-67
2023/03/17 02:11:28;;;;;;;7.03;2.42;;;5.50;72.10;;;;;;5024788;28;20029;-67
2023/03/17 02:13:53;;;;;;;4.32;2.40;;;5.50;72.00;;;;;;5031335;28;20036;-67
2023/03/17 02:16:21;;;;;;;6.35;3.17;;;5.50;71.20;;;;;;5032376;28;20151;-67
2023/03/17 02:18:46;;;;;;;4.95;2.58;;;5.40;72.00;;;;;;5032521;28;20742;-67
2023/03/17 02:21:28;;;;;;;6.50;2.78;;;5.40;72.20;;;;;;5027127;28;20060;-67
2023/03/17 02:23:55;;;;;;;6.47;2.70;;;5.40;72.60;;;;;;5032451;28;20025;-67
2023/03/17 02:26:24;;;;;;;5.95;3.33;;;5.50;72.30;;;;;;5036504;28;20033;-67
2023/03/17 02:28:51;;;;;;;6.95;3.05;;;5.50;71.40;;;;;;5030302;28;20602;-67
2023/03/17 02:31:18;;;;;;;9.63;3.33;;;5.40;72.50;;;;;;5032921;28;20685;-67
2023/03/17 02:33:43;;;;;;;6.80;2.88;;;5.40;72.20;;;;;;5029674;28;20029;-67
2023/03/17 02:36:09;;;;;;;7.82;2.75;;;5.40;72.00;;;;;;5028563;28;20872;-67
2023/03/17 02:38:36;;;;;;;5.93;2.97;;;5.40;72.50;;;;;;5029321;28;20488;-67
2023/03/17 02:41:02;;;;;;;7.93;3.10;;;5.40;72.60;;;;;;5032056;28;20033;-66
2023/03/17 02:43:28;;;;;;;6.05;2.85;;;5.40;73.00;;;;;;5029342;28;20798;-67
2023/03/17 02:45:55;;;;;;;15.55;3.88;;;5.40;72.50;;;;;;5031009;28;20037;-67
2023/03/17 02:48:21;;;;;;;7.50;2.85;;;5.40;72.20;;;;;;5031480;28;20102;-66
2023/03/17 02:50:47;;;;;;;6.50;3.70;;;5.50;72.40;;;;;;5033017;28;20465;-67
2023/03/17 02:53:13;;;;;;;6.05;3.00;;;5.40;72.10;;;;;;5029571;28;20029;-67
2023/03/17 02:55:40;;;;;;;8.95;3.17;;;5.50;72.00;;;;;;5030269;28;20525;-67
2023/03/17 02:58:06;;;;;;;6.68;2.95;;;5.60;71.50;;;;;;5028059;28;20058;-67
2023/03/17 03:00:32;;;;;;;7.03;3.00;;;5.50;71.60;;;;;;5029433;28;20707;-67
2023/03/17 03:02:58;;;;;;;5.07;3.40;;;5.50;71.90;;;;;;5028492;28;20538;-67
2023/03/17 03:05:24;;;;;;;5.55;2.92;;;5.50;72.00;;;;;;5035074;28;20037;-67
2023/03/17 03:07:51;;;;;;;6.63;3.58;;;5.50;71.30;;;;;;5030935;28;20025;-67
2023/03/17 03:10:17;;;;;;;9.60;4.20;;;5.50;71.60;;;;;;5026433;28;20129;-67
2023/03/17 03:12:44;;;;;;;4.85;2.97;;;5.50;71.60;;;;;;5028459;28;20038;-67
2023/03/17 03:15:10;;;;;;;7.78;2.92;;;5.50;71.90;;;;;;5032036;28;20389;-67
2023/03/17 03:17:36;;;;;;;5.72;3.08;;;5.50;71.20;;;;;;5025725;28;20414;-66
2023/03/17 03:20:03;;;;;;;5.00;2.95;;;5.60;71.50;;;;;;5022481;28;20025;-67
2023/03/17 03:22:29;;;;;;;5.70;2.67;;;5.60;70.80;;;;;;5033091;28;20056;-66
2023/03/17 03:24:54;;;;;;;4.80;3.20;;;5.60;70.80;;;;;;5026664;28;20852;-67
2023/03/17 03:27:20;;;;;;;6.53;3.22;;;5.60;70.40;;;;;;5023044;28;20041;-67
2023/03/17 03:29:46;;;;;;;5.43;3.13;;;5.60;70.60;;;;;;5026022;28;20981;-67
2023/03/17 03:32:12;;;;;;;7.47;3.10;;;5.70;70.40;;;;;;5028102;28;20029;-67
2023/03/17 03:34:38;;;;;;;6.60;3.70;;;5.70;70.80;;;;;;5024517;28;20063;-67
2023/03/17 03:37:04;;;;;;;7.78;3.00;;;5.70;70.60;;;;;;5020840;28;20029;-67
2023/03/17 03:39:30;;;;;;;7.72;3.70;;;5.70;70.50;;;;;;5029668;28;20041;-67
2023/03/17 03:41:57;;;;;;;7.35;3.58;;;5.70;70.60;;;;;;5023545;28;20033;-67
2023/03/17 03:44:23;;;;;;;5.57;3.13;;;5.70;70.80;;;;;;5022325;28;20488;-67
2023/03/17 03:46:49;;;;;;;5.82;3.15;;;5.60;71.30;;;;;;5030047;28;20037;-67
2023/03/17 03:49:15;;;;;;;6.72;3.40;;;5.60;71.00;;;;;;5027294;28;20064;-66
2023/03/17 03:51:41;;;;;;;6.38;3.10;;;5.60;70.70;;;;;;5027852;28;20034;-66
2023/03/17 03:54:06;;;;;;;10.35;4.57;;;5.70;71.00;;;;;;5019339;28;20076;-66
2023/03/17 03:56:32;;;;;;;6.10;3.25;;;5.60;70.90;;;;;;5025300;28;20037;-66
2023/03/17 03:59:00;;;;;;;5.57;3.10;;;5.60;71.40;;;;;;5018727;28;20401;-67
2023/03/17 04:01:26;;;;;;;5.97;3.10;;;5.60;70.30;;;;;;5020527;28;20037;-67
2023/03/17 04:03:52;;;;;;;7.25;3.00;;;5.60;71.10;;;;;;5023475;28;20029;-67
2023/03/17 04:06:17;;;;;;;7.00;3.03;;;5.60;71.40;;;;;;5022740;28;20057;-67
2023/03/17 04:08:43;;;;;;;6.32;2.78;;;5.70;71.10;;;;;;5034767;28;20029;-67
2023/03/17 04:11:09;;;;;;;6.78;3.28;;;5.50;71.10;;;;;;5034881;28;20025;-67
2023/03/17 04:13:35;;;;;;;7.40;3.47;;;5.50;71.70;;;;;;5037886;28;20086;-67
2023/03/17 04:16:02;;;;;;;6.13;2.65;;;5.50;71.70;;;;;;5037023;28;20116;-66
2023/03/17 04:18:27;;;;;;;7.78;3.05;;;5.50;71.70;;;;;;5031355;28;20795;-67
2023/03/17 04:20:53;;;;;;;7.70;3.50;;;5.40;72.20;;;;;;5032302;28;20115;-67
2023/03/17 04:23:19;;;;;;;8.68;3.10;;;5.50;71.80;;;;;;5034962;28;20120;-67
2023/03/17 04:25:45;;;;;;;7.03;2.78;;;5.40;71.90;;;;;;5027488;28;20043;-67
2023/03/17 04:28:11;;;;;;;7.68;3.20;;;5.40;72.00;;;;;;5033072;28;20108;-67
2023/03/17 04:30:37;;;;;;;6.28;2.95;;;5.30;72.70;;;;;;5031068;28;20116;-67
2023/03/17 04:33:03;;;;;;;7.72;3.88;;;5.30;71.80;;;;;;5027409;28;20679;-67
2023/03/17 04:35:29;;;;;;;4.57;2.85;;;5.30;72.20;;;;;;5027287;28;20473;-67
2023/03/17 04:37:55;;;;;;;10.07;3.50;;;5.30;72.30;;;;;;5031578;28;20109;-67
2023/03/17 04:40:21;;;;;;;6.75;2.78;;;5.30;72.50;;;;;;5028346;28;20033;-67
2023/03/17 04:42:46;;;;;;;8.43;3.00;;;5.20;72.50;;;;;;5032979;28;20033;-67
2023/03/17 04:45:15;;;;;;;6.38;3.20;;;5.20;73.00;;;;;;5033135;28;20112;-66
2023/03/17 04:47:42;;;;;;;6.45;3.15;;;5.20;72.60;;;;;;5031880;28;20041;-67
2023/03/17 04:50:09;;;;;;;7.10;2.95;;;5.20;72.60;;;;;;5026815;28;20120;-67
2023/03/17 04:52:35;;;;;;;6.75;2.95;;;5.20;72.80;;;;;;5030667;28;20036;-67
2023/03/17 04:55:02;;;;;;;7.80;3.33;;;5.20;72.70;;;;;;5032851;28;20738;-67
2023/03/17 04:57:28;;;;;;;6.30;3.00;;;5.30;72.60;;;;;;5028346;28;20025;-67
2023/03/17 04:59:54;;;;;;;4.18;2.45;;;5.20;73.00;;;;;;5028835;28;20430;-67
2023/03/17 05:02:19;;;;;;;12.25;3.50;;;5.30;72.90;;;;;;5024860;28;20044;-67
2023/03/17 05:04:46;;;;;;;6.57;3.13;;;5.30;72.90;;;;;;5029749;28;20074;-67
2023/03/17 05:07:12;;;;;;;6.07;2.88;;;5.20;73.10;;;;;;5030584;28;20024;-67
2023/03/17 05:09:38;;;;;;;7.60;2.75;;;5.20;73.00;;;;;;5028797;28;20041;-66
2023/03/17 05:12:05;;;;;;;6.68;3.40;;;5.20;72.60;;;;;;5028841;28;20073;-67
2023/03/17 05:14:30;;;;;;;8.88;2.85;;;5.20;72.00;;;;;;5030283;28;20095;-67
2023/03/17 05:16:56;;;;;;;5.97;3.15;;;5.10;72.60;;;;;;5032318;28;20041;-67
2023/03/17 05:19:22;;;;;;;7.75;3.15;;;5.20;72.30;;;;;;5029754;28;20021;-67
2023/03/17 05:21:48;;;;;;;10.43;3.30;;;5.20;72.30;;;;;;5033245;28;20032;-67
2023/03/17 05:24:14;;;;;;;5.50;3.00;;;5.20;72.10;;;;;;5030029;28;20063;-67
2023/03/17 05:26:39;;;;;;;4.93;3.00;;;5.20;72.30;;;;;;5027051;28;20489;-67
2023/03/17 05:29:06;;;;;;;5.72;2.55;;;5.30;71.10;;;;;;5027368;28;20112;-67
2023/03/17 05:31:31;;;;;;;6.72;3.03;;;5.40;71.80;;;;;;5029059;28;20503;-67
2023/03/17 05:33:58;;;;;;;9.57;2.88;;;5.30;72.00;;;;;;5029415;28;20029;-66
2023/03/17 05:36:24;;;;;;;8.32;2.92;;;5.30;72.00;;;;;;5025019;28;20037;-67
2023/03/17 05:38:50;;;;;;;7.93;2.97;;;5.30;70.90;;;;;;5030873;28;20083;-66
2023/03/17 05:41:16;;;;;;;6.35;3.40;;;5.30;71.40;;;;;;5028721;28;20037;-67
2023/03/17 05:43:42;;;;;;;6.07;3.15;;;5.30;70.90;;;;;;5026974;28;20072;-67
2023/03/17 05:46:08;;;;;;;8.02;3.00;;;5.30;70.60;;;;;;5025137;28;20037;-66
2023/03/17 05:48:34;;;;;;;8.63;2.92;;;5.30;70.80;;;;;;5027354;28;20036;-67
2023/03/17 05:51:00;;;;;;;7.05;2.85;;;5.40;70.40;;;;;;5027459;28;20086;-67
2023/03/17 05:53:27;;;;;;;7.40;2.70;;;5.50;70.20;;;;;;5026361;28;20099;-67
2023/03/17 05:55:53;;;;;;;4.95;2.60;;;5.40;69.80;;;;;;5034416;28;20788;-67
2023/03/17 05:58:19;;;;;;;4.70;2.47;;;5.40;70.10;;;;;;5029698;28;20028;-67
2023/03/17 06:00:46;;;;;;;5.47;3.05;;;5.30;70.10;;;;;;5026675;28;20048;-67
2023/03/17 06:03:12;;;;;;;5.00;2.75;;;5.30;70.30;;;;;;5027835;28;20033;-67
2023/03/17 06:05:37;;;;;;;6.40;2.95;;;5.40;70.60;;;;;;5027643;28;20059;-67
2023/03/17 06:08:04;;;;;;;7.00;2.90;;;5.40;69.90;;;;;;5024511;28;20063;-67
2023/03/17 06:10:30;;;;;;;7.82;2.85;;;5.50;69.50;;;;;;5023955;28;20025;-67
2023/03/17 06:12:57;;;;;;;8.63;2.75;;;5.50;69.50;;;;;;5025418;28;20032;-67
2023/03/17 06:15:24;;;;;;;5.80;2.50;;;5.50;69.30;;;;;;5029609;28;20881;-67
2023/03/17 06:17:50;;;;;;;7.60;2.55;;;5.50;69.50;;;;;;5026672;28;20029;-67
2023/03/17 06:20:17;;;;;;;6.28;2.72;;;5.50;68.90;;;;;;5035596;28;20040;-67
2023/03/17 06:22:43;;;;;;;3.35;2.38;;;5.50;68.90;;;;;;5028356;28;20033;-67
2023/03/17 06:25:10;;;;;;;5.68;2.67;;;5.40;69.40;;;;;;5025470;28;20034;-66
2023/03/17 06:27:36;;;;;;;6.97;2.95;;;5.40;69.30;;;;;;5027326;28;20025;-67
2023/03/17 06:30:04;;;;;;;5.90;2.83;;;5.40;68.70;;;;;;5039025;28;20092;-67
2023/03/17 06:32:30;;;;;;;8.23;2.72;;;5.50;68.90;;;;;;5030580;28;20241;-67
2023/03/17 06:34:56;;;;;;;5.05;2.55;;;5.50;69.20;;;;;;5029631;28;20036;-67
2023/03/17 06:37:23;;;;;;;8.07;3.35;;;5.50;69.00;;;;;;5029596;28;20037;-67
2023/03/17 06:39:48;;;;;;;5.13;2.42;;;5.60;69.00;;;;;;5032083;28;20043;-67
2023/03/17 06:42:14;;;;;;;8.02;2.40;;;5.70;68.70;;;;;;5026278;28;21007;-67
2023/03/17 06:44:40;;;;;;;6.95;2.90;;;5.70;68.20;;;;;;5023484;28;20885;-67
2023/03/17 06:47:06;;;;;;;6.50;2.70;;;5.70;68.20;;;;;;5024837;28;20208;-67
2023/03/17 06:49:32;;;;;;;3.58;2.20;;;5.80;68.50;;;;;;5028428;28;20063;-67
2023/03/17 06:51:58;;;;;;;4.10;2.25;;;5.80;67.60;;;;;;5031550;28;20397;-67
2023/03/17 06:54:24;;;;;;;6.70;2.28;;;5.80;67.80;;;;;;5033324;28;20037;-67
2023/03/17 06:56:51;;;;;;;4.82;2.78;;;5.80;67.80;;;;;;5025795;28;20033;-67
2023/03/17 06:59:20;;;;;;;8.98;3.35;;;5.70;67.60;;;;;;5031440;28;20037;-67
2023/03/17 07:01:47;;;;;;;4.82;2.40;;;5.90;68.10;;;;;;5029033;28;20038;-67
2023/03/17 07:04:13;;;;;;;5.88;2.70;;;6.00;66.70;;;;;;5027632;28;20082;-67
2023/03/17 07:06:39;;;;;;;7.47;3.28;;;6.10;67.50;;;;;;5025210;28;20145;-67
2023/03/17 07:09:06;;;;;;;8.25;2.72;;;6.20;66.80;;;;;;5026347;28;20042;-67
2023/03/17 07:11:32;;;;;;;10.68;2.50;;;6.40;66.40;;;;;;5030043;28;20041;-67
2023/03/17 07:13:58;;;;;;;9.23;2.88;;;6.50;65.70;;;;;;5024726;28;20028;-67
2023/03/17 07:16:24;;;;;;;7.03;2.60;;;6.50;63.90;;;;;;5029709;28;20617;-62
2023/03/17 07:18:50;;;;;;;10.07;2.15;;;6.50;65.70;;;;;;5028477;28;20102;-67
2023/03/17 07:21:16;;;;;;;4.78;2.65;;;6.70;65.80;;;;;;5022377;28;20037;-67
2023/03/17 07:23:42;;;;;;;5.05;2.45;;;6.80;63.70;;;;;;5022553;28;20125;-67
2023/03/17 07:26:08;;;;;;;5.95;2.83;;;6.90;63.00;;;;;;5028094;28;20029;-67
2023/03/17 07:28:35;;;;;;;5.63;2.22;;;7.10;62.80;;;;;;5021308;28;20116;-67
2023/03/17 07:31:01;;;;;;;4.18;2.60;;;7.20;62.30;;;;;;5026906;28;20034;-67
2023/03/17 07:33:27;;;;;;;6.03;2.90;;;7.30;62.10;;;;;;5017413;28;20501;-63
2023/03/17 07:35:53;;;;;;;5.13;2.72;;;7.30;62.60;;;;;;5022281;28;20119;-66
2023/03/17 07:38:20;;;;;;;5.07;2.83;;;7.30;61.80;;;;;;5023565;28;20037;-67
2023/03/17 07:40:47;;;;;;;9.68;3.10;;;7.20;62.10;;;;;;5021265;28;20779;-67
2023/03/17 07:43:15;;;;;;;5.85;2.42;;;7.30;62.90;;;;;;5021316;28;20032;-67
2023/03/17 07:45:45;;;;;;;4.18;2.28;;;7.50;61.60;;;;;;5028514;28;20049;-67
2023/03/17 07:48:11;;;;;;;5.90;2.58;;;7.90;60.50;;;;;;5020626;28;20038;-67
2023/03/17 07:50:37;;;;;;;5.53;2.72;;;8.50;59.10;;;;;;5028906;28;20671;-67
2023/03/17 07:53:04;;;;;;;4.97;2.03;;;9.10;57.70;;;;;;5029529;28;20036;-67
2023/03/17 07:55:32;;;;;;;6.40;2.10;;;9.50;55.40;;;;;;5025207;28;20033;-67
2023/03/17 07:57:58;;;;;;;7.18;2.67;;;9.50;55.40;;;;;;5025801;28;20681;-66
2023/03/17 08:00:26;;;;;;;9.23;2.45;;;9.20;56.50;;;;;;5019871;28;20040;-67
2023/03/17 08:02:52;;;;;;;8.48;2.90;;;9.10;55.70;;;;;;5028645;28;20032;-67
2023/03/17 08:05:18;;;;;;;8.77;2.92;;;9.00;56.10;;;;;;5022415;28;20482;-67
2023/03/17 08:07:44;;;;;;;5.97;2.40;;;8.90;56.20;;;;;;5023056;28;20082;-67
2023/03/17 08:10:12;;;;;;;2.90;2.03;;;9.30;56.30;;;;;;5027225;28;20035;-67
2023/03/17 08:12:38;;;;;;;5.78;2.53;;;9.70;56.00;;;;;;5025169;28;20063;-67
2023/03/17 08:15:05;;;;;;;5.75;2.40;;;10.10;54.90;;;;;;5019787;28;20164;-67
2023/03/17 08:17:31;;;;;;;4.30;2.40;;;10.40;53.30;;;;;;5023256;28;20045;-65
2023/03/17 08:19:57;;;;;;;4.80;2.22;;;10.50;52.60;;;;;;5027183;28;20117;-65
2023/03/17 08:22:23;;;;;;;2.95;2.10;;;10.50;52.80;;;;;;5022363;28;20103;-65
2023/03/17 08:24:49;;;;;;;5.57;2.75;;;10.50;53.20;;;;;;5022795;28;20056;-65
2023/03/17 08:27:17;;;;;;;6.10;2.50;;;10.30;52.70;;;;;;5024078;28;20184;-65
2023/03/17 08:29:43;;;;;;;7.70;2.72;;;10.10;54.40;;;;;;5023445;28;20465;-65
2023/03/17 08:32:09;;;;;;;5.28;2.88;;;9.80;53.90;;;;;;5020802;28;20029;-65
2023/03/17 08:34:35;;;;;;;5.88;2.58;;;9.60;55.20;;;;;;5026145;28;20064;-65
2023/03/17 08:37:01;;;;;;;4.40;2.20;;;9.50;54.60;;;;;;5028431;28;20899;-65
2023/03/17 08:39:27;;;;;;;5.63;2.38;;;9.50;54.60;;;;;;5019219;28;20062;-65
2023/03/17 08:41:53;;;;;;;5.97;2.55;;;9.60;54.70;;;;;;5022817;28;20405;-65
2023/03/17 08:44:20;;;;;;;4.45;2.40;;;9.50;55.20;;;;;;5019139;28;20041;-65
2023/03/17 08:46:48;;;;;;;4.72;2.25;;;9.60;55.40;;;;;;5024789;28;20055;-66
2023/03/17 08:49:15;;;;;;;4.72;2.17;;;9.80;54.70;;;;;;5025579;28;20401;-65
2023/03/17 08:51:42;;;;;;;5.55;2.63;;;9.90;53.70;;;;;;5025942;28;20885;-66
2023/03/17 08:54:09;;;;;;;6.32;2.40;;;10.00;53.90;;;;;;5025204;28;20482;-65
2023/03/17 08:56:35;;;;;;;4.80;2.13;;;10.00;53.80;;;;;;5028531;28;20026;-65
2023/03/17 08:59:04;;;;;;;5.65;2.40;;;10.00;53.60;;;;;;5031146;28;20336;-66
2023/03/17 09:01:31;;;;;;;4.43;2.50;;;10.20;54.10;;;;;;5027973;28;20044;-65
2023/03/17 09:03:56;;;;;;;3.30;2.00;;;10.50;53.30;;;;;;5030873;28;20033;-65
2023/03/17 09:06:23;;;;;;;3.78;1.95;;;10.70;53.10;;;;;;5028365;28;20048;-65
2023/03/17 09:08:54;;;;;;;3.90;2.00;;;10.90;52.60;;;;;;5022423;28;20697;-65
2023/03/17 09:11:22;;;;;;;2.78;1.92;;;11.10;52.70;;;;;;5022708;28;20029;-65
2023/03/17 09:13:48;;;;;;;4.20;2.00;;;11.30;50.70;;;;;;5027095;28;20052;-66
2023/03/17 09:16:16;;;;;;;3.90;2.13;;;11.30;49.60;;;;;;5024147;28;20047;-66
2023/03/17 09:18:43;;;;;;;3.55;2.20;;;11.40;49.20;;;;;;5028633;28;20541;-65
2023/03/17 09:21:10;;;;;;;4.40;2.38;;;11.30;48.80;;;;;;5027217;28;20036;-65
2023/03/17 09:23:36;;;;;;;6.68;2.10;;;11.30;49.80;;;;;;5024112;28;20184;-65
2023/03/17 09:26:02;;;;;;;4.70;1.92;;;11.40;49.00;;;;;;5021467;28;20041;-65
2023/03/17 09:28:28;;;;;;;4.05;2.15;;;11.60;50.00;;;;;;5025940;28;20471;-64
2023/03/17 09:30:58;;;;;;;2.95;1.95;;;12.00;49.20;;;;;;5028318;28;20815;-66
2023/03/17 09:33:24;;;;;;;4.40;2.03;;;12.10;49.30;;;;;;5021586;28;20029;-66
2023/03/17 09:35:51;;;;;;;6.32;2.30;;;12.40;48.90;;;;;;5025201;28;20918;-66
2023/03/17 09:38:17;;;;;;;4.22;2.50;;;12.50;47.80;;;;;;5026953;28;20095;-65
2023/03/17 09:40:52;;;;;;;4.03;2.15;;;12.40;48.60;;;;;;5025674;28;20537;-64
2023/03/17 09:43:59;;;;;;;6.43;2.30;;;12.40;46.70;;;;;;5026452;28;20608;-64
2023/03/17 09:46:44;;;;;;;3.15;2.33;;;12.60;48.60;;;;;;5030992;28;20147;-64
2023/03/17 09:49:19;;;;;;;3.33;1.85;;;12.70;47.30;;;;;;5024423;28;20039;-64
2023/03/17 09:51:45;;;;;;;5.38;1.98;;;12.70;46.60;;;;;;5026057;28;20401;-64
2023/03/17 09:54:27;;;;;;;5.20;2.67;;;12.60;46.40;;;;;;5035766;28;20755;-64
2023/03/17 09:57:15;;;;;;;2.70;1.92;;;12.60;46.90;;;;;;5024466;28;20033;-66
2023/03/17 09:59:57;;;;;;;3.67;2.15;;;12.50;47.70;;;;;;5031395;28;20040;-65
2023/03/17 10:02:25;;;;;;;3.83;2.00;;;12.80;48.80;;;;;;5025510;28;20044;-65
2023/03/17 10:04:51;;;;;;;6.32;2.05;;;13.10;47.50;;;;;;5024070;28;20299;-65
2023/03/17 10:07:27;;;;;;;5.93;2.17;;;13.50;45.90;;;;;;5031339;28;20044;-64
2023/03/17 10:10:12;;;;;;;4.30;2.22;;;13.60;45.80;;;;;;5030889;28;20039;-65
2023/03/17 10:12:51;;;;;;;6.45;2.13;;;13.70;45.40;;;;;;5028621;28;20045;-65
2023/03/17 10:15:20;;;;;;;7.07;2.50;;;13.80;45.60;;;;;;5026461;28;20037;-65
2023/03/17 10:17:46;;;;;;;4.43;2.15;;;13.90;45.10;;;;;;5027160;28;20041;-65
2023/03/17 10:20:28;;;;;;;3.80;2.00;;;14.10;45.90;;;;;;5028965;28;20100;-65
2023/03/17 10:22:57;;;;;;;3.63;2.17;;;14.50;43.90;;;;;;5025574;28;20032;-64
2023/03/17 10:25:31;;;;;;;4.47;2.33;;;14.60;43.10;;;;;;5025191;28;20064;-65
2023/03/17 10:28:07;;;;;;;4.65;2.30;;;14.50;42.80;;;;;;5033297;28;20137;-65
2023/03/17 10:30:34;;;;;;;4.32;2.25;;;14.60;44.10;;;;;;5023708;28;20040;-65
2023/03/17 10:33:02;;;;;;;4.85;1.95;;;15.00;43.50;;;;;;5026333;28;20045;-65
2023/03/17 10:35:34;;;;;;;3.85;2.20;;;15.10;42.20;;;;;;5023500;28;20049;-65
2023/03/17 10:38:21;;;;;;;4.07;2.22;;;14.90;42.30;;;;;;5028342;28;20025;-65
2023/03/17 10:41:01;;;;;;;7.22;1.92;;;14.60;42.00;;;;;;5028791;28;20052;-66
2023/03/17 10:43:29;;;;;;;6.65;1.85;;;14.60;42.60;;;;;;5026892;28;20033;-65
2023/03/17 10:45:59;;;;;;;3.65;2.28;;;14.60;43.80;;;;;;5025617;28;20732;-66
2023/03/17 10:48:26;;;;;;;5.15;2.78;;;14.80;44.80;;;;;;5029284;28;20029;-66
2023/03/17 10:50:55;;;;;;;6.07;2.10;;;14.80;42.70;;;;;;5025767;28;20112;-65
2023/03/17 10:53:29;;;;;;;4.70;2.67;;;14.90;42.60;;;;;;5031866;28;20108;-64
2023/03/17 10:56:06;;;;;;;5.00;2.35;;;15.00;42.90;;;;;;5033499;28;20040;-65
2023/03/17 10:58:50;;;;;;;3.33;2.35;;;15.30;42.60;;;;;;5022993;28;20045;-66
2023/03/17 11:01:22;;;;;;;3.95;2.28;;;15.50;41.40;;;;;;5027421;28;20075;-65
2023/03/17 11:03:48;;;;;;;5.03;2.58;;;15.60;41.80;;;;;;5029474;28;20041;-65
2023/03/17 11:06:17;;;;;;;3.10;2.28;;;15.70;40.60;;;;;;5026045;28;20635;-64
2023/03/17 11:08:52;;;;;;;3.33;2.00;;;15.70;43.20;;;;;;5030195;28;20440;-65
2023/03/17 11:11:25;;;;;;;3.35;1.95;;;15.40;40.80;;;;;;5031577;28;20055;-65
2023/03/17 11:14:18;;;;;;;4.10;1.98;;;15.30;42.20;;;;;;5027041;28;20061;-64
2023/03/17 11:16:54;;;;;;;2.63;1.75;;;15.30;42.00;;;;;;5023224;28;20060;-65
2023/03/17 11:19:34;;;;;;;2.28;1.90;;;15.30;41.50;;;;;;5024442;28;20199;-63
2023/03/17 11:22:19;;;;;;;4.93;2.30;;;15.10;40.80;;;;;;5032893;28;20482;-64
2023/03/17 11:25:08;;;;;;;3.92;1.95;;;14.60;41.40;;;;;;5026413;28;20510;-65
2023/03/17 11:27:42;;;;;;;3.17;2.10;;;14.20;42.70;;;;;;5029188;28;20029;-64
2023/03/17 11:30:32;;;;;;;4.05;2.17;;;13.90;43.60;;;;;;5027265;28;20037;-64
2023/03/17 11:33:04;;;;;;;3.63;1.90;;;13.80;42.90;;;;;;5023271;28;20021;-64
2023/03/17 11:35:40;;;;;;;4.70;2.20;;;13.90;42.60;;;;;;5029974;28;20999;-64
2023/03/17 11:38:25;;;;;;;3.70;2.20;;;13.90;44.20;;;;;;5027948;28;20037;-64
2023/03/17 11:41:07;;;;;;;3.97;2.45;;;13.90;45.00;;;;;;5022478;28;20743;-64
2023/03/17 11:43:39;;;;;;;3.92;2.13;;;14.10;45.40;;;;;;5025705;28;20556;-64
2023/03/17 11:46:12;;;;;;;3.92;2.20;;;14.40;45.20;;;;;;5029238;28;20045;-65
2023/03/17 11:48:46;;;;;;;4.13;2.10;;;14.50;44.00;;;;;;5025983;28;20048;-64
2023/03/17 11:51:26;;;;;;;3.95;2.20;;;14.60;44.00;;;;;;5024954;28;20409;-64
2023/03/17 11:54:22;;;;;;;5.22;2.45;;;14.50;43.70;;;;;;5030894;28;20094;-64
2023/03/17 11:56:54;;;;;;;3.50;2.30;;;14.50;44.00;;;;;;5027195;28;20099;-65
2023/03/17 11:59:39;;;;;;;3.13;2.22;;;14.30;44.20;;;;;;5023720;28;20113;-64
2023/03/17 12:02:29;;;;;;;3.72;2.38;;;14.10;46.00;;;;;;5024404;28;20032;-64
2023/03/17 12:05:24;;;;;;;3.53;2.30;;;14.20;45.70;;;;;;5026458;28;20123;-64
2023/03/17 12:08:03;;;;;;;3.70;2.17;;;14.50;44.90;;;;;;5027059;28;20036;-64
2023/03/17 12:10:40;;;;;;;7.47;2.65;;;14.40;44.40;;;;;;5023124;28;20025;-64
2023/03/17 12:13:28;;;;;;;5.82;2.42;;;14.20;45.10;;;;;;5023602;28;20017;-64
2023/03/17 12:16:11;;;;;;;4.50;1.92;;;14.10;44.60;;;;;;5026639;28;20033;-64
2023/03/17 12:19:15;;;;;;;5.25;2.28;;;14.10;45.70;;;;;;5026126;28;20026;-63
2023/03/17 12:21:53;;;;;;;5.22;2.45;;;14.40;46.90;;;;;;5030168;28;20060;-64
2023/03/17 12:24:31;;;;;;;4.88;2.42;;;14.50;46.20;;;;;;5023830;28;20029;-63
2023/03/17 12:27:15;;;;;;;4.60;2.20;;;14.60;45.00;;;;;;5025907;28;20481;-63
2023/03/17 12:29:59;;;;;;;4.20;2.22;;;14.60;46.40;;;;;;5024500;28;20045;-64
2023/03/17 12:33:12;;;;;;;5.45;2.40;;;14.70;45.00;;;;;;5031554;28;20714;-64
2023/03/17 12:35:38;;;;;;;9.48;3.03;;;14.70;45.50;;;;;;5019825;28;20045;-62
2023/03/17 12:38:16;;;;;;;4.13;2.03;;;14.60;44.90;;;;;;5030921;28;20103;-64
2023/03/17 12:41:00;;;;;;;5.75;2.53;;;14.70;45.60;;;;;;5025679;28;20037;-64
2023/03/17 12:43:38;;;;;;;3.78;2.40;;;14.70;45.90;;;;;;5031543;28;20495;-64
2023/03/17 12:46:27;;;;;;;4.07;2.33;;;14.70;45.50;;;;;;5036442;28;20741;-65
2023/03/17 12:49:03;;;;;;;6.47;2.60;;;14.80;45.10;;;;;;5025804;28;20068;-68
2023/03/17 12:51:55;;;;;;;;;;;14.80;45.00;;;;;;5028992;28;20117;-63
2023/03/17 12:54:26;;;;;;;4.93;2.30;;;14.80;45.60;;;;;;5033387;28;19924;-66
2023/03/17 12:56:58;;;;;;;3.60;2.30;;;14.80;45.30;;;;;;5029833;28;20047;-66
2023/03/17 12:59:25;;;;;;;3.97;2.03;;;14.90;46.60;;;;;;5031173;28;20044;-66
2023/03/17 13:01:57;;;;;;;4.05;2.42;;;14.90;46.00;;;;;;5026492;28;20047;-65
2023/03/17 13:04:34;;;;;;;3.53;2.45;;;14.90;45.40;;;;;;5026419;28;20033;-66
2023/03/17 13:07:17;;;;;;;3.97;2.35;;;14.90;44.80;;;;;;5027929;28;20041;-66